Time;durP1;ratioP1;P1;durP2;ratioP2;P2;SDS_P1;SDS_P2;PMS_P1;PMS_P2;Temp;Humidity;BMP_temperature;BMP_pressure;BME280_temperature;BME280_humidity;BME280_pressure;Samples;Min_cycle;Max_cycle;Signal;HPM_P1;HPM_P2
2023/04/29 00:04:01;;;;;;;18.67;7.07;;;17.30;94.40;;;;;;10563047;28;20434;-25
2023/04/29 00:09:03;;;;;;;13.57;5.10;;;17.80;91.60;;;;;;10559097;28;20046;-25
2023/04/29 00:14:06;;;;;;;13.10;6.85;;;15.30;99.90;;;;;;10572801;28;20461;-25
2023/04/29 00:19:08;;;;;;;11.00;4.90;;;15.40;99.90;;;;;;10566852;28;20040;-25
2023/04/29 00:24:10;;;;;;;17.80;7.93;;;17.90;89.70;;;;;;10570271;28;20083;-25
2023/04/29 00:29:13;;;;;;;22.10;8.85;;;16.20;97.30;;;;;;10565450;28;20122;-24
2023/04/29 00:34:15;;;;;;;14.70;7.47;;;17.00;81.60;;;;;;10565802;28;20142;-24
2023/04/29 00:39:17;;;;;;;12.40;6.35;;;15.60;99.90;;;;;;10571231;28;20514;-24
2023/04/29 00:44:20;;;;;;;16.73;7.30;;;16.00;99.50;;;;;;10570098;28;20098;-25
2023/04/29 00:49:22;;;;;;;9.30;5.47;;;17.40;92.00;;;;;;10562826;28;20577;-25
2023/04/29 00:54:24;;;;;;;15.18;5.72;;;17.60;91.50;;;;;;10566427;28;20149;-25
2023/04/29 00:59:31;;;;;;;10.02;4.85;;;16.90;91.00;;;;;;10559722;28;20047;-24
2023/04/29 01:04:33;;;;;;;9.90;5.25;;;17.10;94.30;;;;;;10560076;28;20469;-25
2023/04/29 01:09:49;;;;;;;13.90;5.38;;;16.20;97.60;;;;;;10562891;28;20104;-25
2023/04/29 01:15:03;;;;;;;15.30;6.55;;;16.60;96.00;;;;;;10558583;28;20043;-23
2023/04/29 01:20:06;;;;;;;14.73;6.88;;;16.10;87.00;;;;;;10570249;28;20436;-23
2023/04/29 01:25:10;;;;;;;11.90;4.88;;;16.20;95.30;;;;;;10573030;28;20053;-25
2023/04/29 01:30:22;;;;;;;10.98;4.80;;;17.30;92.40;;;;;;10571928;28;20085;-24
2023/04/29 01:35:35;;;;;;;15.27;6.20;;;18.50;82.70;;;;;;10553668;28;20449;-25
2023/04/29 01:40:47;;;;;;;10.98;6.03;;;18.70;80.00;;;;;;10573944;28;20083;-25
2023/04/29 01:45:50;;;;;;;11.87;6.00;;;18.30;82.30;;;;;;10565981;28;20369;-25
2023/04/29 01:50:52;;;;;;;13.15;6.65;;;18.10;73.20;;;;;;10570126;28;21106;-25
2023/04/29 01:55:55;;;;;;;12.23;6.28;;;18.70;79.80;;;;;;10577410;28;20052;-25
2023/04/29 02:00:57;;;;;;;9.88;5.82;;;18.80;79.70;;;;;;10574465;28;20051;-27
2023/04/29 02:05:59;;;;;;;10.10;5.93;;;16.50;92.70;;;;;;10570397;28;20075;-25
2023/04/29 02:11:02;;;;;;;12.40;6.10;;;17.80;83.50;;;;;;10572140;28;20039;-25
2023/04/29 02:16:10;;;;;;;8.35;5.18;;;18.30;79.10;;;;;;10566136;28;20051;-24
2023/04/29 02:21:12;;;;;;;13.13;6.65;;;17.60;84.40;;;;;;10577146;28;20135;-24
2023/04/29 02:26:15;;;;;;;11.02;6.00;;;17.60;85.80;;;;;;10555967;28;20067;-26
2023/04/29 02:31:17;;;;;;;11.15;6.70;;;18.50;81.70;;;;;;10568274;28;20089;-26
2023/04/29 02:36:19;;;;;;;10.15;5.95;;;18.20;83.80;;;;;;10568140;28;20134;-25
2023/04/29 02:41:24;;;;;;;13.70;7.43;;;18.30;81.60;;;;;;10564800;28;20050;-25
2023/04/29 02:46:26;;;;;;;11.02;6.05;;;18.20;84.40;;;;;;10569758;28;20069;-24
2023/04/29 02:51:29;;;;;;;8.63;5.13;;;18.30;82.60;;;;;;10569243;28;20115;-25
2023/04/29 02:56:32;;;;;;;9.50;5.57;;;18.40;81.70;;;;;;10568655;28;20056;-24
2023/04/29 03:01:34;;;;;;;10.23;5.40;;;18.90;76.30;;;;;;10555999;28;20146;-25
2023/04/29 03:06:36;;;;;;;12.52;7.57;;;19.00;76.40;;;;;;10573117;28;20051;-25
2023/04/29 03:11:40;;;;;;;10.27;6.13;;;18.90;75.20;;;;;;10571141;28;20092;-25
2023/04/29 03:16:43;;;;;;;8.55;4.60;;;18.90;76.70;;;;;;10562585;28;20408;-25
2023/04/29 03:21:45;;;;;;;7.10;4.22;;;18.40;80.50;;;;;;10561846;28;20141;-25
2023/04/29 03:26:48;;;;;;;9.50;5.90;;;18.80;76.90;;;;;;10570169;28;20062;-25
2023/04/29 03:31:50;;;;;;;6.25;4.35;;;18.80;74.30;;;;;;10562861;28;20470;-24
2023/04/29 03:36:52;;;;;;;9.55;4.70;;;19.10;75.00;;;;;;10561692;28;20044;-26
2023/04/29 03:41:55;;;;;;;8.90;5.70;;;18.80;74.60;;;;;;10565808;28;20047;-25
2023/04/29 03:46:57;;;;;;;8.52;5.05;;;18.50;77.90;;;;;;10571155;28;20138;-23
2023/04/29 03:51:59;;;;;;;7.90;4.45;;;19.10;74.40;;;;;;10566312;28;20078;-25
2023/04/29 03:57:02;;;;;;;10.25;5.43;;;18.30;77.00;;;;;;10563457;28;20040;-25
2023/04/29 04:02:04;;;;;;;8.85;4.82;;;19.10;73.80;;;;;;10563854;28;20048;-25
2023/04/29 04:07:06;;;;;;;6.88;4.88;;;17.80;82.30;;;;;;10559014;28;20158;-27
2023/04/29 04:12:09;;;;;;;6.03;3.85;;;18.40;74.20;;;;;;10558611;28;20063;-24
2023/04/29 04:17:11;;;;;;;9.50;4.20;;;19.00;74.20;;;;;;10555490;28;20133;-25
2023/04/29 04:22:13;;;;;;;6.55;3.72;;;19.10;72.80;;;;;;10553827;28;20048;-24
2023/04/29 04:27:16;;;;;;;7.53;4.25;;;19.10;73.20;;;;;;10551456;28;20072;-26
2023/04/29 04:32:18;;;;;;;6.93;3.92;;;18.20;77.70;;;;;;10562796;28;20071;-23
2023/04/29 04:37:20;;;;;;;8.98;4.38;;;19.00;74.20;;;;;;10555653;28;20058;-29
2023/04/29 04:42:23;;;;;;;5.22;3.67;;;18.90;73.40;;;;;;10570082;28;20116;-24
2023/04/29 04:47:25;;;;;;;6.63;4.22;;;19.00;74.40;;;;;;10559495;28;20085;-25
2023/04/29 04:52:27;;;;;;;7.05;3.72;;;18.60;75.30;;;;;;10566258;28;20075;-26
2023/04/29 04:57:30;;;;;;;5.57;3.30;;;18.90;74.00;;;;;;10576496;28;20055;-24
2023/04/29 05:02:32;;;;;;;6.00;3.38;;;19.10;72.20;;;;;;10560781;28;20051;-24
2023/04/29 05:07:34;;;;;;;5.40;3.55;;;18.80;71.90;;;;;;10569011;28;20130;-25
2023/04/29 05:12:37;;;;;;;;;;;19.00;73.30;;;;;;10555322;28;20115;-24
2023/04/29 05:17:39;;;;;;;5.47;3.65;;;17.90;81.00;;;;;;10562796;28;19963;-25
2023/04/29 05:22:41;;;;;;;3.78;2.88;;;18.70;75.70;;;;;;10573262;28;20162;-24
2023/04/29 05:27:44;;;;;;;6.30;3.55;;;18.50;77.20;;;;;;10569469;28;20489;-24
2023/04/29 05:32:47;;;;;;;11.98;5.05;;;18.80;74.80;;;;;;10566775;28;20040;-25
2023/04/29 05:37:49;;;;;;;4.97;3.20;;;18.80;75.20;;;;;;10572647;28;20599;-24
2023/04/29 05:42:52;;;;;;;4.50;3.22;;;18.90;75.60;;;;;;10571054;28;20100;-24
2023/04/29 05:47:54;;;;;;;5.85;3.13;;;18.80;77.10;;;;;;10568137;28;20051;-25
2023/04/29 05:52:56;;;;;;;5.38;2.80;;;19.20;73.10;;;;;;10569123;28;20043;-24
2023/04/29 05:57:59;;;;;;;7.30;4.30;;;19.10;74.40;;;;;;10564083;28;20055;-25
2023/04/29 06:03:01;;;;;;;16.85;7.30;;;18.50;76.20;;;;;;10567104;28;20130;-24
2023/04/29 06:08:04;;;;;;;8.48;5.00;;;18.40;77.40;;;;;;10557148;28;20128;-25
2023/04/29 06:13:08;;;;;;;14.10;5.57;;;19.20;74.80;;;;;;10550000;28;20051;-25
2023/04/29 06:18:10;;;;;;;4.30;3.17;;;19.00;72.60;;;;;;10565113;28;20049;-23
2023/04/29 06:23:12;;;;;;;6.65;3.67;;;18.40;82.40;;;;;;10565167;28;20055;-23
2023/04/29 06:28:15;;;;;;;4.25;2.17;;;19.30;73.30;;;;;;10562703;28;20051;-25
2023/04/29 06:33:17;;;;;;;6.35;3.20;;;19.30;74.40;;;;;;10554182;28;20056;-25
2023/04/29 06:38:19;;;;;;;5.53;3.15;;;19.60;72.60;;;;;;10546656;28;20131;-25
2023/04/29 06:43:22;;;;;;;6.35;3.00;;;19.70;71.40;;;;;;10557008;28;20169;-25
2023/04/29 06:48:26;;;;;;;6.97;3.92;;;19.70;71.80;;;;;;10552058;28;20044;-25
2023/04/29 06:53:28;;;;;;;8.68;3.08;;;19.80;71.00;;;;;;10568237;28;20126;-25
2023/04/29 06:58:31;;;;;;;6.38;3.70;;;19.30;74.10;;;;;;10549774;28;20459;-24
2023/04/29 07:03:33;;;;;;;9.10;4.93;;;19.60;72.60;;;;;;10562333;28;20465;-24
2023/04/29 07:08:35;;;;;;;5.38;3.15;;;19.50;72.70;;;;;;10560282;28;20058;-24
2023/04/29 07:13:38;;;;;;;9.85;3.70;;;19.80;70.60;;;;;;10559275;28;20075;-24
2023/04/29 07:18:41;;;;;;;10.05;2.22;;;19.60;72.00;;;;;;10549771;28;20048;-24
2023/04/29 07:23:43;;;;;;;6.53;3.13;;;20.00;69.80;;;;;;10556750;28;20479;-24
2023/04/29 07:28:48;;;;;;;;;;;19.80;69.50;;;;;;10569994;28;20126;-24
2023/04/29 07:33:49;;;;;;;5.68;3.15;;;19.40;74.30;;;;;;10560310;28;20037;-24
2023/04/29 07:38:52;;;;;;;11.77;4.72;;;19.80;70.70;;;;;;10548172;28;20138;-24
2023/04/29 07:43:56;;;;;;;7.85;3.40;;;17.60;87.60;;;;;;10546708;28;20060;-24
2023/04/29 07:48:57;;;;;;;5.68;3.30;;;18.00;85.90;;;;;;10564035;28;20063;-24
2023/04/29 07:53:59;;;;;;;11.73;6.38;;;18.30;81.70;;;;;;10547225;28;20059;-24
2023/04/29 07:59:02;;;;;;;6.90;3.03;;;18.00;76.10;;;;;;10561945;28;20083;-24
2023/04/29 08:04:04;;;;;;;10.35;2.90;;;19.30;76.60;;;;;;10555330;28;20048;-25
2023/04/29 08:09:06;;;;;;;10.88;4.50;;;19.60;73.50;;;;;;10558592;28;20480;-25
2023/04/29 08:14:09;;;;;;;3.97;2.30;;;18.70;78.70;;;;;;10560956;28;20074;-25
2023/04/29 08:19:11;;;;;;;17.60;6.75;;;19.50;75.70;;;;;;10566165;28;20075;-25
2023/04/29 08:24:13;;;;;;;11.38;2.95;;;17.30;81.60;;;;;;10552601;28;20136;-23
2023/04/29 08:29:17;;;;;;;4.30;2.83;;;18.50;84.10;;;;;;10554149;28;20039;-25
2023/04/29 08:34:18;;;;;;;8.10;4.43;;;16.90;94.10;;;;;;10554807;28;20039;-25
2023/04/29 08:39:20;;;;;;;9.27;3.15;;;18.40;70.80;;;;;;10558010;28;20158;-24
2023/04/29 08:44:25;;;;;;;19.17;6.80;;;18.80;82.50;;;;;;10563488;28;20084;-24
2023/04/29 08:49:28;;;;;;;4.93;2.25;;;17.90;85.10;;;;;;10561051;28;20473;-24
2023/04/29 08:54:31;;;;;;;6.35;3.00;;;18.70;80.70;;;;;;10560266;28;20467;-24
2023/04/29 08:59:36;;;;;;;5.57;1.95;;;18.70;78.10;;;;;;10554617;28;20152;-25
2023/04/29 09:04:47;;;;;;;11.63;5.78;;;20.00;74.20;;;;;;10557305;28;20121;-25
2023/04/29 09:09:51;;;;;;;5.53;2.42;;;19.20;69.60;;;;;;10560835;28;20062;-26
2023/04/29 09:14:54;;;;;;;6.78;2.08;;;18.80;81.80;;;;;;10559053;28;20086;-25
2023/04/29 09:19:56;;;;;;;4.93;2.63;;;19.60;76.90;;;;;;10547044;28;20174;-24
2023/04/29 09:25:12;;;;;;;6.40;2.72;;;19.60;77.60;;;;;;10558179;28;20043;-25
2023/04/29 09:30:15;;;;;;;4.43;2.53;;;19.60;78.20;;;;;;10560250;28;20097;-24
2023/04/29 09:35:25;;;;;;;7.60;2.10;;;19.60;78.00;;;;;;10575993;28;20067;-24
2023/04/29 09:40:30;;;;;;;6.47;2.00;;;19.70;77.30;;;;;;10555359;28;20044;-25
2023/04/29 09:45:35;;;;;;;13.57;2.03;;;19.00;67.90;;;;;;10554040;28;20052;-25
2023/04/29 09:50:38;;;;;;;12.75;3.20;;;20.30;83.90;;;;;;10566087;28;20422;-22
2023/04/29 09:55:59;;;;;;;8.95;4.70;;;20.00;87.10;;;;;;10560420;28;20039;-23
2023/04/29 10:01:03;;;;;;;6.05;3.35;;;19.60;88.70;;;;;;10571401;28;20676;-24
2023/04/29 10:06:07;;;;;;;14.07;5.85;;;20.50;82.60;;;;;;10561432;28;20067;-23
2023/04/29 10:11:11;;;;;;;11.43;4.20;;;16.40;71.30;;;;;;10555277;28;20144;-24
2023/04/29 10:16:28;;;;;;;11.60;5.38;;;16.60;91.30;;;;;;10556937;28;20082;-25
2023/04/29 10:21:31;;;;;;;12.13;5.45;;;16.10;99.90;;;;;;10551914;28;20582;-25
2023/04/29 10:26:36;;;;;;;13.77;5.53;;;16.00;87.50;;;;;;10558077;28;20750;-25
2023/04/29 10:31:41;;;;;;;12.90;5.85;;;16.50;92.70;;;;;;10551923;28;20047;-23
2023/04/29 10:36:44;;;;;;;17.15;5.90;;;16.30;84.60;;;;;;10562414;28;20048;-24
2023/04/29 10:41:47;;;;;;;10.63;6.18;;;16.70;95.30;;;;;;10558939;28;20444;-23
2023/04/29 10:47:18;;;;;;;15.98;5.93;;;18.40;78.00;;;;;;10567875;28;20119;-23
2023/04/29 10:52:20;;;;;;;12.23;5.60;;;16.30;94.10;;;;;;10559035;28;20134;-23
2023/04/29 10:57:22;;;;;;;11.07;6.50;;;16.20;71.40;;;;;;10556269;28;20117;-23
2023/04/29 11:02:26;;;;;;;13.07;6.10;;;16.00;75.20;;;;;;10563005;28;20051;-23
2023/04/29 11:07:29;;;;;;;11.32;6.55;;;15.30;92.20;;;;;;10559241;28;20044;-23
2023/04/29 11:12:31;;;;;;;13.52;8.05;;;15.70;99.70;;;;;;10565682;28;20071;-23
2023/04/29 11:17:37;;;;;;;12.70;6.50;;;14.90;88.00;;;;;;10550114;28;20040;-24
2023/04/29 11:22:39;;;;;;;11.20;5.75;;;14.70;93.80;;;;;;10560707;28;20144;-22
2023/04/29 11:27:41;;;;;;;13.97;6.03;;;14.40;92.20;;;;;;10564556;28;20067;-24
2023/04/29 11:32:45;;;;;;;11.38;5.97;;;14.30;93.60;;;;;;10558193;28;20087;-24
2023/04/29 11:37:47;;;;;;;12.07;6.13;;;13.90;94.90;;;;;;10555048;28;20062;-24
2023/04/29 11:42:50;;;;;;;10.97;5.60;;;14.90;98.50;;;;;;10553785;28;20200;-24
2023/04/29 11:47:53;;;;;;;11.10;5.78;;;15.20;88.40;;;;;;10563431;28;20475;-24
2023/04/29 11:52:57;;;;;;;9.38;5.20;;;15.10;91.70;;;;;;10561502;28;20055;-23
2023/04/29 11:57:59;;;;;;;8.60;5.00;;;15.00;94.40;;;;;;10551568;28;20173;-22
2023/04/29 12:03:08;;;;;;;7.25;5.03;;;16.60;94.50;;;;;;10551043;28;20090;-23
2023/04/29 12:08:10;;;;;;;11.70;5.35;;;16.60;77.20;;;;;;10560163;28;20043;-23
2023/04/29 12:13:12;;;;;;;11.27;5.70;;;16.30;99.90;;;;;;10554984;28;20135;-23
2023/04/29 12:18:17;;;;;;;9.00;5.55;;;15.60;80.90;;;;;;10563894;28;20488;-24
2023/04/29 12:23:22;;;;;;;10.48;4.82;;;16.60;87.20;;;;;;10560510;28;20058;-23
2023/04/29 12:28:24;;;;;;;9.88;5.25;;;16.90;95.60;;;;;;10563685;28;20556;-23
2023/04/29 12:33:30;;;;;;;6.80;3.50;;;17.20;74.00;;;;;;10562013;28;20070;-24
2023/04/29 12:38:32;;;;;;;9.65;3.60;;;18.10;96.70;;;;;;10554094;28;20051;-23
2023/04/29 12:43:34;;;;;;;10.68;4.35;;;19.40;84.40;;;;;;10546732;28;20063;-22
2023/04/29 12:48:39;;;;;;;10.45;4.68;;;20.10;84.80;;;;;;10566701;28;20131;-22
2023/04/29 12:53:42;;;;;;;5.95;3.78;;;19.60;68.40;;;;;;10563239;28;20112;-22
2023/04/29 12:58:43;;;;;;;;;;;20.50;68.40;;;;;;10558852;28;20441;-24
2023/04/29 13:03:48;;;;;;;7.23;3.63;;;20.00;83.00;;;;;;10550842;28;20003;-23
2023/04/29 13:08:51;;;;;;;8.98;2.92;;;19.30;60.10;;;;;;10548399;28;20036;-24
2023/04/29 13:13:53;;;;;;;10.02;2.92;;;19.90;73.70;;;;;;10560030;28;20039;-24
2023/04/29 13:18:56;;;;;;;9.40;3.38;;;20.50;64.40;;;;;;10556073;28;20044;-23
2023/04/29 13:23:58;;;;;;;10.70;2.75;;;20.30;77.10;;;;;;10572728;28;20400;-24
2023/04/29 13:29:00;;;;;;;4.85;2.58;;;19.40;83.50;;;;;;10560643;28;20197;-25
2023/04/29 13:34:04;;;;;;;12.63;3.63;;;19.10;63.60;;;;;;10560696;28;20135;-24
2023/04/29 13:39:05;;;;;;;6.68;3.13;;;19.30;74.10;;;;;;10560105;28;20043;-24
2023/04/29 13:44:07;;;;;;;6.90;2.47;;;19.90;84.40;;;;;;10562594;28;20063;-23
2023/04/29 13:49:11;;;;;;;6.80;2.40;;;20.90;73.40;;;;;;10561270;28;20147;-23
2023/04/29 13:54:12;;;;;;;3.42;1.95;;;21.50;71.60;;;;;;10547834;28;20522;-24
2023/04/29 13:59:14;;;;;;;7.68;2.38;;;21.90;69.40;;;;;;10564217;28;20065;-24
2023/04/29 14:04:17;;;;;;;6.22;1.95;;;20.20;51.20;;;;;;10558910;28;20471;-23
2023/04/29 14:09:20;;;;;;;7.75;2.15;;;21.70;69.60;;;;;;10557477;28;20051;-24
2023/04/29 14:14:22;;;;;;;7.80;1.52;;;20.40;54.10;;;;;;10554349;28;20047;-22
2023/04/29 14:19:25;;;;;;;4.60;1.65;;;20.10;66.20;;;;;;10564670;28;20074;-24
2023/04/29 14:24:27;;;;;;;21.40;3.03;;;20.40;56.70;;;;;;10562112;28;20083;-22
2023/04/29 14:29:29;;;;;;;3.58;2.00;;;20.90;52.40;;;;;;10562266;28;20508;-24
2023/04/29 14:34:33;;;;;;;9.15;2.10;;;20.10;50.70;;;;;;10549357;28;20043;-24
2023/04/29 14:39:35;;;;;;;13.70;2.30;;;19.50;54.90;;;;;;10562792;28;20126;-24
2023/04/29 14:44:37;;;;;;;10.15;3.53;;;20.90;68.80;;;;;;10555686;28;20055;-23
2023/04/29 14:49:41;;;;;;;8.15;2.33;;;22.10;65.90;;;;;;10556814;28;20138;-26
2023/04/29 14:54:43;;;;;;;5.65;2.15;;;21.20;72.20;;;;;;10553198;28;20477;-24
2023/04/29 14:59:45;;;;;;;2.42;1.67;;;23.30;75.20;;;;;;10556369;28;20043;-23
2023/04/29 15:04:49;;;;;;;6.93;1.85;;;23.50;73.70;;;;;;10552567;28;20059;-24
2023/04/29 15:09:51;;;;;;;2.72;1.60;;;22.50;52.90;;;;;;10565141;28;20494;-24
2023/04/29 15:14:53;;;;;;;3.10;1.70;;;21.50;77.40;;;;;;10568035;28;20127;-24
2023/04/29 15:19:56;;;;;;;1.58;1.35;;;23.90;76.90;;;;;;10562096;28;20051;-23
2023/04/29 15:24:58;;;;;;;5.97;1.90;;;23.80;60.90;;;;;;10568006;28;20079;-25
2023/04/29 15:29:59;;;;;;;;;;;24.00;77.80;;;;;;10558347;28;20047;-23
2023/04/29 15:35:05;;;;;;;5.75;1.30;;;24.40;72.50;;;;;;10559584;28;19930;-24
2023/04/29 15:40:08;;;;;;;5.53;1.42;;;24.70;67.50;;;;;;10572568;28;20067;-24
2023/04/29 15:45:11;;;;;;;2.83;1.27;;;24.80;66.00;;;;;;10565974;28;20061;-24
2023/04/29 15:50:14;;;;;;;2.88;1.50;;;25.00;65.10;;;;;;10555781;28;20040;-23
2023/04/29 15:55:17;;;;;;;2.83;1.35;;;25.30;63.90;;;;;;10568302;28;20036;-22
2023/04/29 16:00:19;;;;;;;2.97;1.13;;;25.20;55.70;;;;;;10552422;28;20098;-24
2023/04/29 16:05:22;;;;;;;2.78;1.25;;;25.30;58.20;;;;;;10559005;28;20897;-24
2023/04/29 16:10:24;;;;;;;3.38;1.40;;;25.30;57.10;;;;;;10557338;28;20500;-23
2023/04/29 16:15:26;;;;;;;9.05;1.42;;;25.40;57.00;;;;;;10553353;28;20741;-23
2023/04/29 16:20:30;;;;;;;3.90;1.77;;;25.30;56.40;;;;;;10563083;28;20476;-23
2023/04/29 16:25:32;;;;;;;4.28;1.73;;;25.30;55.50;;;;;;10539849;28;20056;-24
2023/04/29 16:30:34;;;;;;;;;;;25.40;55.60;;;;;;10541791;28;20105;-25
2023/04/29 16:35:37;;;;;;;5.35;1.70;;;25.40;55.00;;;;;;10550537;28;20388;-24
2023/04/29 16:40:40;;;;;;;7.93;2.22;;;25.50;54.40;;;;;;10557901;28;20146;-25
2023/04/29 16:45:42;;;;;;;14.13;2.20;;;25.50;54.60;;;;;;10561045;28;20085;-24
2023/04/29 16:50:47;;;;;;;11.57;2.55;;;25.50;51.50;;;;;;10575045;28;20147;-25
2023/04/29 16:55:50;;;;;;;8.15;2.55;;;25.60;54.30;;;;;;10568813;28;20044;-23
2023/04/29 17:00:54;;;;;;;6.50;2.35;;;25.50;55.00;;;;;;10561380;28;20484;-22
2023/04/29 17:05:58;;;;;;;10.07;3.47;;;25.80;54.00;;;;;;10566482;28;20044;-24
2023/04/29 17:11:00;;;;;;;11.10;4.00;;;25.60;54.20;;;;;;10575889;28;20097;-25
2023/04/29 17:16:02;;;;;;;13.00;3.25;;;25.70;53.40;;;;;;10571188;28;20078;-23
2023/04/29 17:21:05;;;;;;;5.95;2.50;;;26.00;61.40;;;;;;10564877;28;20699;-23
2023/04/29 17:26:07;;;;;;;8.20;2.30;;;25.30;49.60;;;;;;10558581;28;20131;-23
2023/04/29 17:31:09;;;;;;;5.47;2.40;;;25.30;53.60;;;;;;10553958;28;20043;-25
2023/04/29 17:36:12;;;;;;;;;;;25.60;70.00;;;;;;10565533;28;20044;-25
2023/04/29 17:41:14;;;;;;;4.80;2.00;;;26.00;73.80;;;;;;10574611;28;19973;-23
2023/04/29 17:46:15;;;;;;;;;;;25.50;87.00;;;;;;10569966;28;20060;-30
2023/04/29 17:51:18;;;;;;;6.38;1.80;;;26.00;80.20;;;;;;10557956;28;19928;-23
2023/04/29 17:56:21;;;;;;;2.13;1.42;;;26.50;76.30;;;;;;10565601;28;20433;-24
2023/04/29 18:01:23;;;;;;;3.95;1.63;;;26.60;69.00;;;;;;10570318;28;20056;-23
2023/04/29 18:06:27;;;;;;;2.15;1.38;;;26.60;67.70;;;;;;10576305;28;20071;-24
2023/04/29 18:11:29;;;;;;;6.45;1.63;;;26.60;65.60;;;;;;10561856;28;20078;-25
2023/04/29 18:16:31;;;;;;;7.80;1.80;;;26.40;60.60;;;;;;10565733;28;20495;-24
2023/04/29 18:21:34;;;;;;;4.18;1.73;;;26.40;66.40;;;;;;10566792;28;20116;-23
2023/04/29 18:26:36;;;;;;;4.43;1.88;;;26.40;63.80;;;;;;10565002;28;20177;-24
2023/04/29 18:31:38;;;;;;;5.05;1.58;;;26.50;64.00;;;;;;10565724;28;20116;-24
2023/04/29 18:36:41;;;;;;;3.38;1.42;;;26.50;65.60;;;;;;10563450;28;20127;-25
2023/04/29 18:41:43;;;;;;;4.53;1.67;;;26.40;63.40;;;;;;10553175;28;20423;-24
2023/04/29 18:46:46;;;;;;;3.97;1.70;;;26.30;61.10;;;;;;10557283;28;20051;-24
2023/04/29 18:51:49;;;;;;;4.63;1.45;;;26.20;61.10;;;;;;10563406;28;20687;-24
2023/04/29 18:56:52;;;;;;;3.08;1.60;;;26.10;60.10;;;;;;10551651;28;20044;-24
2023/04/29 19:01:54;;;;;;;2.25;1.15;;;26.00;59.80;;;;;;10557641;28;20195;-23
2023/04/29 19:06:59;;;;;;;;;;;25.90;59.30;;;;;;10553489;28;20071;-24
2023/04/29 19:12:02;;;;;;;3.17;1.42;;;25.70;57.60;;;;;;10556472;28;19927;-24
2023/04/29 19:17:04;;;;;;;2.88;1.20;;;25.50;57.90;;;;;;10568038;28;20789;-23
2023/04/29 19:22:07;;;;;;;2.85;1.40;;;25.40;56.60;;;;;;10563123;28;20047;-23
2023/04/29 19:27:09;;;;;;;2.25;1.10;;;25.30;56.10;;;;;;10561954;28;20122;-23
2023/04/29 19:32:11;;;;;;;;;;;25.10;55.80;;;;;;10554382;28;20039;-24
2023/04/29 19:37:14;;;;;;;2.40;1.42;;;25.10;56.20;;;;;;10560419;28;19966;-24
2023/04/29 19:42:16;;;;;;;3.38;1.52;;;25.00;55.60;;;;;;10560740;28;20056;-24
2023/04/29 19:47:18;;;;;;;5.47;1.75;;;24.90;55.60;;;;;;10567738;28;20048;-25
2023/04/29 19:52:23;;;;;;;;;;;24.80;55.40;;;;;;10556596;28;20115;-24
2023/04/29 19:57:27;;;;;;;4.03;1.40;;;24.70;55.30;;;;;;10557877;28;19931;-25
2023/04/29 20:02:29;;;;;;;4.53;1.50;;;24.60;55.30;;;;;;10559785;28;20059;-24
2023/04/29 20:07:32;;;;;;;4.07;1.80;;;24.50;55.40;;;;;;10552097;28;20055;-23
2023/04/29 20:12:35;;;;;;;6.13;1.85;;;24.50;55.40;;;;;;10552413;28;20075;-24
2023/04/29 20:17:38;;;;;;;3.58;1.48;;;24.30;55.20;;;;;;10564092;28;20051;-23
2023/04/29 20:22:41;;;;;;;3.88;1.88;;;24.20;55.30;;;;;;10561836;28;20047;-23
2023/04/29 20:27:43;;;;;;;3.35;2.13;;;24.10;55.30;;;;;;10562649;28;20509;-23
2023/04/29 20:32:45;;;;;;;;;;;24.10;55.50;;;;;;10546907;28;20040;-22
2023/04/29 20:37:49;;;;;;;3.80;2.40;;;24.00;55.40;;;;;;10547559;28;19953;-24
2023/04/29 20:42:51;;;;;;;6.65;2.40;;;23.90;55.50;;;;;;10555750;28;20150;-24
2023/04/29 20:47:53;;;;;;;;;;;23.90;55.40;;;;;;10555735;28;20052;-21
2023/04/29 20:52:56;;;;;;;5.57;2.17;;;23.80;55.50;;;;;;10560843;28;19919;-24
2023/04/29 20:57:58;;;;;;;5.65;2.58;;;23.70;55.40;;;;;;10565762;28;20048;-22
2023/04/29 21:03:00;;;;;;;;;;;23.70;55.50;;;;;;10561336;28;20055;-23
2023/04/29 21:08:03;;;;;;;6.28;3.00;;;23.60;55.50;;;;;;10571418;28;20361;-23
2023/04/29 21:13:05;;;;;;;7.88;2.72;;;23.60;55.60;;;;;;10561689;28;20224;-24
2023/04/29 21:18:06;;;;;;;;;;;23.50;55.50;;;;;;10564785;28;20077;-24
2023/04/29 21:23:10;;;;;;;9.37;3.60;;;23.50;55.80;;;;;;10563697;28;19963;-24
2023/04/29 21:28:12;;;;;;;10.32;3.97;;;23.40;55.70;;;;;;10563073;28;20047;-24
2023/04/29 21:33:13;;;;;;;;;;;23.30;55.60;;;;;;10574598;28;20058;-24
2023/04/29 21:38:17;;;;;;;9.35;3.47;;;23.30;55.90;;;;;;10569155;28;19919;-24
2023/04/29 21:43:19;;;;;;;9.13;3.85;;;23.20;55.80;;;;;;10564506;28;20065;-24
2023/04/29 21:48:22;;;;;;;9.15;3.10;;;23.20;55.90;;;;;;10554825;28;20089;-24
2023/04/29 21:53:25;;;;;;;11.60;3.38;;;23.10;55.90;;;;;;10574751;28;20048;-23
2023/04/29 21:58:27;;;;;;;7.20;3.47;;;23.10;55.80;;;;;;10569608;28;20130;-24
2023/04/29 22:03:28;;;;;;;;;;;23.00;55.90;;;;;;10574358;28;20051;-22
2023/04/29 22:08:32;;;;;;;12.83;3.93;;;22.90;55.80;;;;;;10574097;28;20347;-24
2023/04/29 22:13:34;;;;;;;6.43;2.90;;;22.90;56.00;;;;;;10559761;28;20047;-24
2023/04/29 22:18:35;;;;;;;;;;;22.80;56.10;;;;;;10576253;28;20054;-24
2023/04/29 22:23:39;;;;;;;9.60;4.73;;;22.80;56.60;;;;;;10550702;28;20502;-24
2023/04/29 22:28:41;;;;;;;9.77;5.40;;;22.80;57.00;;;;;;10562522;28;20051;-24
2023/04/29 22:33:42;;;;;;;7.72;3.58;;;22.70;56.90;;;;;;10563063;28;20055;-23
2023/04/29 22:38:46;;;;;;;5.93;2.95;;;22.60;57.00;;;;;;10569295;28;20078;-24
2023/04/29 22:43:48;;;;;;;5.82;2.85;;;22.60;56.90;;;;;;10567452;28;20090;-24
2023/04/29 22:48:49;;;;;;;9.05;3.30;;;22.60;57.10;;;;;;10556986;28;20127;-24
2023/04/29 22:53:53;;;;;;;7.13;3.17;;;22.50;57.20;;;;;;10560419;28;20047;-24
2023/04/29 22:58:54;;;;;;;7.22;3.97;;;22.50;57.40;;;;;;10562598;28;20143;-24
2023/04/29 23:03:56;;;;;;;7.78;3.40;;;22.40;57.50;;;;;;10563389;28;20055;-23
2023/04/29 23:08:59;;;;;;;5.25;3.13;;;22.30;57.60;;;;;;10560241;28;20500;-24
2023/04/29 23:14:01;;;;;;;6.55;3.53;;;22.30;57.60;;;;;;10549908;28;20075;-23
2023/04/29 23:19:03;;;;;;;8.48;2.97;;;22.30;57.80;;;;;;10553334;28;20492;-23
2023/04/29 23:24:06;;;;;;;5.18;3.13;;;22.20;57.80;;;;;;10560019;28;20078;-24
2023/04/29 23:29:08;;;;;;;8.75;3.28;;;22.20;58.00;;;;;;10556649;28;20508;-24
2023/04/29 23:34:10;;;;;;;7.20;3.10;;;22.10;58.00;;;;;;10554291;28;20048;-23
2023/04/29 23:39:14;;;;;;;8.85;3.55;;;22.10;58.10;;;;;;10557642;28;20043;-22
2023/04/29 23:44:15;;;;;;;7.18;2.95;;;22.00;58.30;;;;;;10564913;28;20364;-24
2023/04/29 23:49:17;;;;;;;7.00;2.83;;;22.00;58.30;;;;;;10559245;28;20117;-23
2023/04/29 23:54:20;;;;;;;6.18;3.13;;;22.00;58.40;;;;;;10552790;28;20044;-23
2023/04/29 23:59:22;;;;;;;7.28;2.95;;;21.90;58.30;;;;;;10570492;28;20101;-23
